TAP257 LPPT-FZAA
Flight info
| Callsign | TAP257 |
|---|---|
| Flight time | N/A |
| Altitude | 23000 |
| Route | DUZOP1S/20 ESP UZ5 VFA UP600 AMSEL/N0500F310 UR722 SAK UW900 OZT UJ744 BAGBO/N0498F330 UM629 BAKAB UR981 NY UT365 BOVDA UL684 PITRO/N0502F350 UL684 ABC UW225 AKLIS UA604 BZ |
| Aircraft | B742/H-A1B3B4B5/LB1 |
Departure
| Time | N/A |
|---|---|
| Airport | Lisbon Humberto Delgado Airport (LPPT) |
Arrival
| Time | 2026-04-29 14:58 |
|---|---|
| Airport | Ndjili International Airport (FZAA) |
| Time | Latitude | Longitude | Altitude | Speed | Heading |
|---|---|---|---|---|---|
| 2026-04-29 12:11 | 12.64015 | 3.37131 | 32869 ft | 520 kts | 127° |
| 2026-04-29 12:11 | 12.59679 | 3.43095 | 32860 ft | 522 kts | 127° |
| 2026-04-29 12:12 | 12.55340 | 3.49050 | 32857 ft | 523 kts | 127° |
| 2026-04-29 12:12 | 12.50986 | 3.55014 | 32855 ft | 524 kts | 127° |
| 2026-04-29 12:13 | 12.46606 | 3.60929 | 32855 ft | 522 kts | 129° |
| 2026-04-29 12:13 | 12.41911 | 3.66560 | 32855 ft | 521 kts | 133° |
| 2026-04-29 12:14 | 12.36997 | 3.72032 | 32858 ft | 522 kts | 134° |
| 2026-04-29 12:14 | 12.32020 | 3.77491 | 32861 ft | 521 kts | 134° |
| 2026-04-29 12:15 | 12.27073 | 3.82924 | 32860 ft | 520 kts | 134° |
| 2026-04-29 12:15 | 12.22171 | 3.88314 | 32859 ft | 520 kts | 134° |
| 2026-04-29 12:16 | 12.17221 | 3.93758 | 32858 ft | 520 kts | 134° |
| 2026-04-29 12:16 | 12.12298 | 3.99169 | 32859 ft | 521 kts | 134° |
| 2026-04-29 12:17 | 12.07361 | 4.04592 | 32861 ft | 523 kts | 134° |
| 2026-04-29 12:17 | 12.02426 | 4.10010 | 32866 ft | 520 kts | 134° |
| 2026-04-29 12:18 | 11.97501 | 4.15413 | 32866 ft | 519 kts | 134° |
| 2026-04-29 12:18 | 11.92585 | 4.20803 | 32868 ft | 520 kts | 134° |
| 2026-04-29 12:19 | 11.87612 | 4.26246 | 32873 ft | 520 kts | 134° |
| 2026-04-29 12:19 | 11.82702 | 4.31614 | 32881 ft | 519 kts | 134° |
| 2026-04-29 12:20 | 11.77776 | 4.36996 | 32879 ft | 518 kts | 134° |
| 2026-04-29 12:20 | 11.72846 | 4.42377 | 32876 ft | 519 kts | 134° |
| 2026-04-29 12:21 | 11.67886 | 4.47789 | 32874 ft | 520 kts | 134° |
| 2026-04-29 12:21 | 11.62967 | 4.53153 | 32868 ft | 518 kts | 134° |
| 2026-04-29 12:22 | 11.57994 | 4.58542 | 32869 ft | 518 kts | 134° |
| 2026-04-29 12:22 | 11.53039 | 4.63877 | 32869 ft | 519 kts | 134° |
| 2026-04-29 12:23 | 11.48053 | 4.69234 | 32872 ft | 518 kts | 134° |
| 2026-04-29 12:23 | 11.43093 | 4.74560 | 32875 ft | 517 kts | 134° |
| 2026-04-29 12:24 | 11.38173 | 4.79841 | 32879 ft | 517 kts | 134° |
| 2026-04-29 12:24 | 11.33189 | 4.85187 | 32883 ft | 518 kts | 134° |
| 2026-04-29 12:25 | 11.28217 | 4.90518 | 32885 ft | 518 kts | 134° |
| 2026-04-29 12:26 | 11.20767 | 4.98500 | 32885 ft | 517 kts | 134° |
| 2026-04-29 12:26 | 11.15834 | 5.03783 | 32886 ft | 517 kts | 134° |
| 2026-04-29 12:27 | 11.10872 | 5.09093 | 32887 ft | 518 kts | 134° |
| 2026-04-29 12:27 | 11.05892 | 5.14420 | 32888 ft | 517 kts | 134° |
| 2026-04-29 12:28 | 11.00931 | 5.19723 | 32891 ft | 516 kts | 134° |
| 2026-04-29 12:28 | 10.95969 | 5.25024 | 32895 ft | 517 kts | 134° |
| 2026-04-29 12:29 | 10.90996 | 5.30335 | 32892 ft | 519 kts | 133° |
| 2026-04-29 12:29 | 10.86011 | 5.35657 | 32895 ft | 516 kts | 133° |
| 2026-04-29 12:30 | 10.81046 | 5.40954 | 32895 ft | 515 kts | 133° |
| 2026-04-29 12:30 | 10.76108 | 5.46219 | 32899 ft | 517 kts | 133° |
| 2026-04-29 12:31 | 10.71125 | 5.51530 | 32899 ft | 517 kts | 133° |
| 2026-04-29 12:31 | 10.66158 | 5.56821 | 32902 ft | 516 kts | 133° |
| 2026-04-29 12:32 | 10.61200 | 5.62100 | 32906 ft | 516 kts | 133° |
| 2026-04-29 12:32 | 10.56231 | 5.67387 | 32905 ft | 515 kts | 133° |
| 2026-04-29 12:33 | 10.51298 | 5.72634 | 32900 ft | 512 kts | 133° |
| 2026-04-29 12:33 | 10.46378 | 5.77865 | 32903 ft | 512 kts | 133° |
| 2026-04-29 12:34 | 10.41456 | 5.83095 | 32899 ft | 512 kts | 133° |
| 2026-04-29 12:34 | 10.36515 | 5.88342 | 32893 ft | 509 kts | 133° |
| 2026-04-29 12:35 | 10.31632 | 5.93525 | 32886 ft | 509 kts | 133° |
| 2026-04-29 12:35 | 10.26729 | 5.98729 | 32878 ft | 510 kts | 133° |
| 2026-04-29 12:36 | 10.21827 | 6.03929 | 32877 ft | 510 kts | 133° |
| 2026-04-29 12:36 | 10.16930 | 6.09120 | 32875 ft | 509 kts | 133° |
| 2026-04-29 12:37 | 10.12030 | 6.14310 | 32881 ft | 507 kts | 133° |
| 2026-04-29 12:37 | 10.07146 | 6.19480 | 32873 ft | 506 kts | 133° |
| 2026-04-29 12:38 | 10.02275 | 6.24633 | 32868 ft | 506 kts | 133° |
| 2026-04-29 12:38 | 9.97380 | 6.29810 | 32870 ft | 506 kts | 133° |
| 2026-04-29 12:39 | 9.92511 | 6.34958 | 32876 ft | 507 kts | 133° |
| 2026-04-29 12:39 | 9.87627 | 6.40126 | 32881 ft | 506 kts | 132° |
| 2026-04-29 12:40 | 9.82766 | 6.45271 | 32887 ft | 505 kts | 132° |
| 2026-04-29 12:40 | 9.77883 | 6.50436 | 32894 ft | 505 kts | 132° |
| 2026-04-29 12:41 | 9.73017 | 6.55583 | 32903 ft | 505 kts | 132° |
| 2026-04-29 12:41 | 9.68206 | 6.60768 | 32902 ft | 503 kts | 131° |
| 2026-04-29 12:42 | 9.63459 | 6.65982 | 32899 ft | 503 kts | 131° |
| 2026-04-29 12:42 | 9.58714 | 6.71216 | 32894 ft | 504 kts | 131° |
| 2026-04-29 12:43 | 9.53952 | 6.76467 | 32887 ft | 504 kts | 131° |
| 2026-04-29 12:43 | 9.49198 | 6.81705 | 32890 ft | 503 kts | 131° |
| 2026-04-29 12:44 | 9.44484 | 6.86897 | 32891 ft | 502 kts | 131° |
| 2026-04-29 12:44 | 9.39759 | 6.92099 | 32887 ft | 502 kts | 131° |
| 2026-04-29 12:45 | 9.35038 | 6.97294 | 32884 ft | 501 kts | 131° |
| 2026-04-29 12:45 | 9.30228 | 7.02481 | 32876 ft | 503 kts | 133° |
| 2026-04-29 12:46 | 9.25288 | 7.07464 | 32876 ft | 503 kts | 134° |
| 2026-04-29 12:46 | 9.20271 | 7.12382 | 32883 ft | 500 kts | 134° |
| 2026-04-29 12:47 | 9.15228 | 7.17301 | 32886 ft | 501 kts | 134° |
| 2026-04-29 12:47 | 9.10221 | 7.22188 | 32887 ft | 500 kts | 134° |
| 2026-04-29 12:48 | 9.05192 | 7.27094 | 32885 ft | 500 kts | 134° |
| 2026-04-29 12:48 | 9.00178 | 7.31959 | 32888 ft | 501 kts | 135° |
| 2026-04-29 12:49 | 8.95136 | 7.36836 | 32897 ft | 502 kts | 135° |
| 2026-04-29 12:49 | 8.90082 | 7.41721 | 32909 ft | 501 kts | 135° |
| 2026-04-29 12:50 | 8.85023 | 7.46609 | 32917 ft | 500 kts | 134° |
| 2026-04-29 12:50 | 8.79982 | 7.51479 | 32920 ft | 501 kts | 135° |
| 2026-04-29 12:51 | 8.74950 | 7.56337 | 32915 ft | 502 kts | 135° |
| 2026-04-29 12:51 | 8.69884 | 7.61227 | 32909 ft | 500 kts | 135° |
| 2026-04-29 12:52 | 8.64848 | 7.66085 | 32902 ft | 500 kts | 135° |
| 2026-04-29 12:52 | 8.59798 | 7.70956 | 32891 ft | 501 kts | 135° |
| 2026-04-29 12:53 | 8.54745 | 7.75826 | 32881 ft | 500 kts | 135° |
| 2026-04-29 12:53 | 8.49695 | 7.80692 | 32879 ft | 501 kts | 135° |
| 2026-04-29 12:54 | 8.44640 | 7.85561 | 32875 ft | 503 kts | 135° |
| 2026-04-29 12:54 | 8.39574 | 7.90440 | 32871 ft | 501 kts | 135° |
| 2026-04-29 12:55 | 8.34542 | 7.95282 | 32867 ft | 500 kts | 135° |
| 2026-04-29 12:55 | 8.29489 | 8.00144 | 32858 ft | 501 kts | 135° |
| 2026-04-29 12:56 | 8.24435 | 8.05020 | 32858 ft | 499 kts | 134° |
| 2026-04-29 12:56 | 8.19521 | 8.09977 | 32862 ft | 501 kts | 133° |
| 2026-04-29 12:57 | 8.14660 | 8.15034 | 32858 ft | 503 kts | 132° |
| 2026-04-29 12:57 | 8.09794 | 8.20128 | 32857 ft | 500 kts | 133° |
| 2026-04-29 12:58 | 8.04971 | 8.25176 | 32847 ft | 499 kts | 133° |
| 2026-04-29 12:58 | 8.00131 | 8.30239 | 32840 ft | 500 kts | 133° |
| 2026-04-29 12:59 | 7.95303 | 8.35285 | 32836 ft | 499 kts | 133° |
| 2026-04-29 12:59 | 7.90481 | 8.40322 | 32843 ft | 500 kts | 133° |
| 2026-04-29 13:00 | 7.85633 | 8.45386 | 32843 ft | 500 kts | 133° |
| 2026-04-29 13:00 | 7.80795 | 8.50436 | 32847 ft | 499 kts | 133° |
| 2026-04-29 13:01 | 7.75951 | 8.55493 | 32847 ft | 500 kts | 133° |
| 2026-04-29 13:01 | 7.70991 | 8.60422 | 32845 ft | 500 kts | 135° |
| 2026-04-29 13:02 | 7.65818 | 8.65114 | 32843 ft | 501 kts | 137° |
| 2026-04-29 13:02 | 7.60560 | 8.69740 | 32842 ft | 501 kts | 137° |
| 2026-04-29 13:03 | 7.55296 | 8.74354 | 32842 ft | 500 kts | 137° |
| 2026-04-29 13:03 | 7.50013 | 8.78987 | 32841 ft | 499 kts | 137° |
| 2026-04-29 13:04 | 7.44807 | 8.83555 | 32840 ft | 497 kts | 137° |
| 2026-04-29 13:04 | 7.39561 | 8.88158 | 32845 ft | 499 kts | 138° |
| 2026-04-29 13:05 | 7.34318 | 8.92757 | 32849 ft | 501 kts | 137° |
| 2026-04-29 13:05 | 7.29050 | 8.97378 | 32852 ft | 500 kts | 137° |
| 2026-04-29 13:06 | 7.24010 | 9.02261 | 32860 ft | 499 kts | 133° |
| 2026-04-29 13:06 | 7.19255 | 9.07381 | 32868 ft | 497 kts | 131° |
| 2026-04-29 13:07 | 7.14621 | 9.12514 | 32866 ft | 496 kts | 131° |
| 2026-04-29 13:07 | 7.09359 | 9.16992 | 32868 ft | 499 kts | 150° |
| 2026-04-29 13:07 | 7.06140 | 9.18380 | 32871 ft | 503 kts | 162° |
| 2026-04-29 13:08 | 7.02715 | 9.19184 | 32876 ft | 506 kts | 169° |
| 2026-04-29 13:08 | 6.95681 | 9.19919 | 32881 ft | 509 kts | 175° |
| 2026-04-29 13:09 | 6.88591 | 9.20335 | 32887 ft | 506 kts | 175° |
| 2026-04-29 13:09 | 6.81501 | 9.20759 | 32902 ft | 507 kts | 175° |
| 2026-04-29 13:10 | 6.74447 | 9.21212 | 32908 ft | 507 kts | 175° |
| 2026-04-29 13:10 | 6.67364 | 9.21678 | 32920 ft | 505 kts | 175° |
| 2026-04-29 13:11 | 6.60357 | 9.22141 | 32930 ft | 504 kts | 175° |
| 2026-04-29 13:11 | 6.53303 | 9.22606 | 32952 ft | 506 kts | 175° |
| 2026-04-29 13:12 | 6.46236 | 9.23072 | 32957 ft | 507 kts | 175° |
| 2026-04-29 13:12 | 6.39171 | 9.23537 | 32940 ft | 505 kts | 175° |
| 2026-04-29 13:13 | 6.32152 | 9.23999 | 32916 ft | 505 kts | 175° |
| 2026-04-29 13:13 | 6.25133 | 9.24462 | 32892 ft | 505 kts | 175° |
| 2026-04-29 13:14 | 6.18075 | 9.24975 | 32884 ft | 504 kts | 173° |
| 2026-04-29 13:14 | 6.11113 | 9.25682 | 32884 ft | 503 kts | 172° |
| 2026-04-29 13:15 | 6.04131 | 9.26482 | 32881 ft | 505 kts | 172° |
| 2026-04-29 13:15 | 5.97103 | 9.27303 | 32875 ft | 504 kts | 172° |
| 2026-04-29 13:16 | 5.90131 | 9.28116 | 32895 ft | 503 kts | 172° |
| 2026-04-29 13:16 | 5.83141 | 9.28929 | 32927 ft | 505 kts | 172° |
| 2026-04-29 13:17 | 5.76089 | 9.29748 | 32948 ft | 506 kts | 172° |
| 2026-04-29 13:17 | 5.69107 | 9.30799 | 32970 ft | 504 kts | 168° |
| 2026-04-29 13:18 | 5.62232 | 9.32184 | 32998 ft | 503 kts | 166° |
| 2026-04-29 13:18 | 5.55355 | 9.33679 | 33023 ft | 504 kts | 166° |
| 2026-04-29 13:19 | 5.48472 | 9.35185 | 33049 ft | 504 kts | 166° |
| 2026-04-29 13:19 | 5.41606 | 9.36680 | 33068 ft | 503 kts | 166° |
| 2026-04-29 13:20 | 5.34748 | 9.38171 | 33077 ft | 504 kts | 166° |
| 2026-04-29 13:20 | 5.27866 | 9.39666 | 33085 ft | 505 kts | 166° |
| 2026-04-29 13:21 | 5.20994 | 9.41159 | 33094 ft | 506 kts | 166° |
| 2026-04-29 13:21 | 5.14076 | 9.42661 | 33085 ft | 505 kts | 166° |
| 2026-04-29 13:22 | 5.07172 | 9.44160 | 33082 ft | 505 kts | 166° |
| 2026-04-29 13:22 | 5.00275 | 9.45656 | 33064 ft | 506 kts | 166° |
| 2026-04-29 13:23 | 4.93385 | 9.47152 | 33047 ft | 505 kts | 166° |
| 2026-04-29 13:23 | 4.86464 | 9.48654 | 33013 ft | 507 kts | 166° |
| 2026-04-29 13:24 | 4.79497 | 9.50165 | 32984 ft | 507 kts | 166° |
| 2026-04-29 13:24 | 4.72594 | 9.51662 | 32953 ft | 508 kts | 166° |
| 2026-04-29 13:25 | 4.65645 | 9.53169 | 32936 ft | 509 kts | 166° |
| 2026-04-29 13:25 | 4.55252 | 9.55421 | 33173 ft | 503 kts | 166° |
| 2026-04-29 13:26 | 4.51831 | 9.56207 | 33424 ft | 501 kts | 164° |
| 2026-04-29 13:26 | 4.48499 | 9.57129 | 33653 ft | 498 kts | 161° |
| 2026-04-29 13:26 | 4.45149 | 9.58185 | 33872 ft | 496 kts | 160° |
| 2026-04-29 13:26 | 4.41869 | 9.59297 | 34076 ft | 494 kts | 159° |
| 2026-04-29 13:27 | 4.38632 | 9.60430 | 34264 ft | 493 kts | 159° |
| 2026-04-29 13:27 | 4.35381 | 9.61584 | 34445 ft | 492 kts | 159° |
| 2026-04-29 13:27 | 4.32164 | 9.62728 | 34607 ft | 492 kts | 159° |
| 2026-04-29 13:27 | 4.28912 | 9.63884 | 34766 ft | 491 kts | 159° |
| 2026-04-29 13:28 | 4.22441 | 9.66178 | 34866 ft | 494 kts | 159° |
| 2026-04-29 13:28 | 4.15894 | 9.68496 | 34864 ft | 499 kts | 159° |
| 2026-04-29 13:29 | 4.09278 | 9.70836 | 34863 ft | 504 kts | 159° |
| 2026-04-29 13:29 | 4.02635 | 9.73231 | 34866 ft | 505 kts | 156° |
| 2026-04-29 13:30 | 3.96374 | 9.76415 | 34858 ft | 501 kts | 147° |
| 2026-04-29 13:30 | 3.90475 | 9.80140 | 34850 ft | 501 kts | 145° |
| 2026-04-29 13:31 | 3.84652 | 9.83991 | 34846 ft | 503 kts | 144° |
| 2026-04-29 13:31 | 3.78777 | 9.87877 | 34847 ft | 503 kts | 145° |
| 2026-04-29 13:32 | 3.72908 | 9.91744 | 34841 ft | 502 kts | 145° |
| 2026-04-29 13:32 | 3.67089 | 9.95571 | 34838 ft | 502 kts | 145° |
| 2026-04-29 13:33 | 3.61215 | 9.99433 | 34837 ft | 503 kts | 145° |
| 2026-04-29 13:33 | 3.55372 | 10.03275 | 34842 ft | 504 kts | 145° |
| 2026-04-29 13:34 | 3.49488 | 10.07142 | 34847 ft | 505 kts | 145° |
| 2026-04-29 13:34 | 3.43588 | 10.11020 | 34853 ft | 505 kts | 145° |
| 2026-04-29 13:35 | 3.37695 | 10.14892 | 34852 ft | 505 kts | 145° |
| 2026-04-29 13:35 | 3.31818 | 10.18754 | 34851 ft | 505 kts | 145° |
| 2026-04-29 13:36 | 3.25922 | 10.22627 | 34855 ft | 506 kts | 145° |
| 2026-04-29 13:36 | 3.20031 | 10.26496 | 34863 ft | 505 kts | 145° |
| 2026-04-29 13:37 | 3.14115 | 10.30382 | 34875 ft | 506 kts | 145° |
| 2026-04-29 13:37 | 3.08214 | 10.34257 | 34888 ft | 506 kts | 145° |
| 2026-04-29 13:38 | 3.02295 | 10.38143 | 34891 ft | 507 kts | 145° |
| 2026-04-29 13:38 | 2.96401 | 10.42012 | 34892 ft | 506 kts | 145° |
| 2026-04-29 13:39 | 2.90491 | 10.45892 | 34902 ft | 506 kts | 145° |
| 2026-04-29 13:39 | 2.84605 | 10.49755 | 34912 ft | 506 kts | 145° |
| 2026-04-29 13:40 | 2.78669 | 10.53650 | 34917 ft | 506 kts | 145° |
| 2026-04-29 13:40 | 2.72785 | 10.57511 | 34925 ft | 506 kts | 145° |
| 2026-04-29 13:41 | 2.66865 | 10.61396 | 34926 ft | 505 kts | 145° |
| 2026-04-29 13:41 | 2.60968 | 10.65264 | 34927 ft | 505 kts | 145° |
| 2026-04-29 13:42 | 2.55070 | 10.69132 | 34925 ft | 506 kts | 145° |
| 2026-04-29 13:42 | 2.49157 | 10.73010 | 34921 ft | 506 kts | 145° |
| 2026-04-29 13:43 | 2.43274 | 10.76868 | 34923 ft | 506 kts | 145° |
| 2026-04-29 13:43 | 2.37387 | 10.80728 | 34912 ft | 505 kts | 145° |
| 2026-04-29 13:44 | 2.31470 | 10.84608 | 34911 ft | 506 kts | 145° |
| 2026-04-29 13:44 | 2.25600 | 10.88456 | 34915 ft | 506 kts | 145° |
| 2026-04-29 13:45 | 2.19682 | 10.92336 | 34918 ft | 506 kts | 145° |
| 2026-04-29 13:45 | 2.13783 | 10.96202 | 34930 ft | 506 kts | 145° |
| 2026-04-29 13:46 | 2.07884 | 11.00068 | 34940 ft | 506 kts | 145° |
| 2026-04-29 13:46 | 2.02020 | 11.03911 | 34952 ft | 505 kts | 145° |
| 2026-04-29 13:47 | 1.96095 | 11.07793 | 34946 ft | 506 kts | 145° |
| 2026-04-29 13:47 | 1.90205 | 11.11653 | 34947 ft | 506 kts | 145° |
| 2026-04-29 13:48 | 1.84274 | 11.15539 | 34947 ft | 507 kts | 145° |
| 2026-04-29 13:48 | 1.78381 | 11.19399 | 34955 ft | 506 kts | 145° |
| 2026-04-29 13:49 | 1.72483 | 11.23263 | 34957 ft | 506 kts | 145° |
| 2026-04-29 13:49 | 1.66546 | 11.27152 | 34953 ft | 507 kts | 144° |
| 2026-04-29 13:50 | 1.60657 | 11.31009 | 34952 ft | 506 kts | 145° |
| 2026-04-29 13:50 | 1.54746 | 11.34880 | 34944 ft | 506 kts | 145° |
| 2026-04-29 13:51 | 1.48832 | 11.38753 | 34944 ft | 506 kts | 144° |
| 2026-04-29 13:51 | 1.42925 | 11.42622 | 34945 ft | 506 kts | 145° |
| 2026-04-29 13:52 | 1.37023 | 11.46485 | 34944 ft | 506 kts | 145° |
| 2026-04-29 13:52 | 1.31139 | 11.50339 | 34946 ft | 506 kts | 145° |
| 2026-04-29 13:53 | 1.25208 | 11.54221 | 34940 ft | 505 kts | 144° |
| 2026-04-29 13:53 | 1.19342 | 11.58061 | 34936 ft | 505 kts | 145° |
| 2026-04-29 13:54 | 1.13420 | 11.61939 | 34934 ft | 505 kts | 144° |
| 2026-04-29 13:54 | 1.07550 | 11.65781 | 34934 ft | 505 kts | 145° |
| 2026-04-29 13:55 | 1.01640 | 11.69650 | 34928 ft | 505 kts | 145° |
| 2026-04-29 13:55 | 0.95730 | 11.73518 | 34923 ft | 505 kts | 145° |
| 2026-04-29 13:56 | 0.89863 | 11.77358 | 34922 ft | 505 kts | 144° |
| 2026-04-29 13:56 | 0.83962 | 11.81220 | 34919 ft | 504 kts | 145° |
| 2026-04-29 13:57 | 0.78086 | 11.85066 | 34925 ft | 504 kts | 145° |
| 2026-04-29 13:57 | 0.72171 | 11.88937 | 34928 ft | 505 kts | 145° |
| 2026-04-29 13:58 | 0.66278 | 11.92795 | 34929 ft | 506 kts | 145° |
| 2026-04-29 13:58 | 0.60388 | 11.96651 | 34928 ft | 506 kts | 145° |
| 2026-04-29 13:59 | 0.54461 | 12.00531 | 34927 ft | 505 kts | 145° |
| 2026-04-29 13:59 | 0.48581 | 12.04379 | 34925 ft | 504 kts | 145° |
| 2026-04-29 14:00 | 0.42694 | 12.08231 | 34921 ft | 505 kts | 145° |
| 2026-04-29 14:00 | 0.36797 | 12.12090 | 34917 ft | 505 kts | 145° |
| 2026-04-29 14:01 | 0.30899 | 12.15949 | 34915 ft | 505 kts | 145° |
| 2026-04-29 14:01 | 0.25035 | 12.19786 | 34909 ft | 504 kts | 145° |
| 2026-04-29 14:02 | 0.19147 | 12.23638 | 34907 ft | 504 kts | 145° |
| 2026-04-29 14:02 | 0.13241 | 12.27502 | 34902 ft | 504 kts | 145° |
| 2026-04-29 14:03 | 0.07406 | 12.31320 | 34900 ft | 502 kts | 145° |
| 2026-04-29 14:03 | 0.01516 | 12.35174 | 34901 ft | 502 kts | 145° |
| 2026-04-29 14:04 | -0.04350 | 12.39012 | 34903 ft | 502 kts | 145° |
| 2026-04-29 14:04 | -0.10207 | 12.42845 | 34905 ft | 502 kts | 145° |
| 2026-04-29 14:05 | -0.16073 | 12.46683 | 34909 ft | 502 kts | 145° |
| 2026-04-29 14:05 | -0.21934 | 12.50518 | 34917 ft | 501 kts | 145° |
| 2026-04-29 14:06 | -0.27748 | 12.54322 | 34919 ft | 500 kts | 145° |
| 2026-04-29 14:06 | -0.33599 | 12.58150 | 34917 ft | 500 kts | 145° |
| 2026-04-29 14:07 | -0.39439 | 12.61972 | 34913 ft | 499 kts | 145° |
| 2026-04-29 14:07 | -0.45243 | 12.65769 | 34910 ft | 499 kts | 145° |
| 2026-04-29 14:08 | -0.51064 | 12.69579 | 34903 ft | 499 kts | 145° |
| 2026-04-29 14:08 | -0.56929 | 12.73417 | 34900 ft | 499 kts | 145° |
| 2026-04-29 14:09 | -0.62723 | 12.77208 | 34901 ft | 498 kts | 146° |
| 2026-04-29 14:09 | -0.68543 | 12.81016 | 34903 ft | 497 kts | 145° |
| 2026-04-29 14:10 | -0.74319 | 12.84796 | 34904 ft | 497 kts | 146° |
| 2026-04-29 14:10 | -0.80120 | 12.88593 | 34906 ft | 497 kts | 146° |
| 2026-04-29 14:11 | -0.85916 | 12.92386 | 34906 ft | 496 kts | 146° |
| 2026-04-29 14:11 | -0.91712 | 12.96180 | 34907 ft | 498 kts | 146° |
| 2026-04-29 14:12 | -0.97504 | 12.99970 | 34907 ft | 497 kts | 146° |
| 2026-04-29 14:12 | -1.03301 | 13.03764 | 34909 ft | 495 kts | 146° |
| 2026-04-29 14:13 | -1.09077 | 13.07545 | 34920 ft | 496 kts | 146° |
| 2026-04-29 14:13 | -1.14894 | 13.11353 | 34929 ft | 496 kts | 145° |
| 2026-04-29 14:14 | -1.20661 | 13.15128 | 34932 ft | 496 kts | 145° |
| 2026-04-29 14:14 | -1.26491 | 13.18945 | 34934 ft | 497 kts | 146° |
| 2026-04-29 14:15 | -1.32262 | 13.22724 | 34934 ft | 496 kts | 145° |
| 2026-04-29 14:15 | -1.38063 | 13.26521 | 34930 ft | 495 kts | 145° |
| 2026-04-29 14:16 | -1.43848 | 13.30309 | 34927 ft | 496 kts | 145° |
| 2026-04-29 14:16 | -1.49602 | 13.34077 | 34927 ft | 495 kts | 145° |
| 2026-04-29 14:17 | -1.55404 | 13.37877 | 34928 ft | 495 kts | 145° |
| 2026-04-29 14:17 | -1.61185 | 13.41663 | 34935 ft | 495 kts | 145° |
| 2026-04-29 14:18 | -1.66914 | 13.45517 | 34935 ft | 495 kts | 144° |
| 2026-04-29 14:18 | -1.72568 | 13.49441 | 34933 ft | 496 kts | 143° |
| 2026-04-29 14:19 | -1.78227 | 13.53403 | 34930 ft | 495 kts | 143° |
| 2026-04-29 14:19 | -1.83865 | 13.57354 | 34935 ft | 495 kts | 143° |
| 2026-04-29 14:20 | -1.89536 | 13.61327 | 34939 ft | 495 kts | 143° |
| 2026-04-29 14:20 | -1.95177 | 13.65278 | 34943 ft | 495 kts | 143° |
| 2026-04-29 14:21 | -2.00858 | 13.69257 | 34951 ft | 496 kts | 143° |
| 2026-04-29 14:21 | -2.06518 | 13.73222 | 34951 ft | 494 kts | 143° |
| 2026-04-29 14:22 | -2.12184 | 13.77193 | 34954 ft | 496 kts | 143° |
| 2026-04-29 14:22 | -2.17830 | 13.81151 | 34951 ft | 496 kts | 143° |
| 2026-04-29 14:23 | -2.23517 | 13.85124 | 34954 ft | 496 kts | 143° |
| 2026-04-29 14:23 | -2.29197 | 13.89060 | 34956 ft | 496 kts | 143° |
| 2026-04-29 14:24 | -2.34860 | 13.92972 | 34957 ft | 496 kts | 143° |
| 2026-04-29 14:24 | -2.40553 | 13.96904 | 34959 ft | 496 kts | 143° |
| 2026-04-29 14:25 | -2.46215 | 14.00816 | 34960 ft | 495 kts | 143° |
| 2026-04-29 14:25 | -2.51929 | 14.04764 | 34962 ft | 496 kts | 143° |
| 2026-04-29 14:26 | -2.57571 | 14.08661 | 34958 ft | 486 kts | 143° |
| 2026-04-29 14:26 | -2.63093 | 14.12475 | 34505 ft | 479 kts | 143° |
| 2026-04-29 14:27 | -2.65839 | 14.14374 | 33988 ft | 480 kts | 143° |
| 2026-04-29 14:27 | -2.68589 | 14.16275 | 33469 ft | 476 kts | 143° |
| 2026-04-29 14:27 | -2.71275 | 14.18131 | 32959 ft | 469 kts | 143° |
| 2026-04-29 14:28 | -2.76616 | 14.21822 | 32005 ft | 458 kts | 143° |
| 2026-04-29 14:28 | -2.79208 | 14.23614 | 31551 ft | 455 kts | 143° |
| 2026-04-29 14:28 | -2.81807 | 14.25410 | 31095 ft | 453 kts | 143° |
| 2026-04-29 14:28 | -2.84404 | 14.27207 | 30637 ft | 451 kts | 143° |
| 2026-04-29 14:29 | -2.86967 | 14.28978 | 30186 ft | 449 kts | 143° |
| 2026-04-29 14:29 | -2.89552 | 14.30766 | 29732 ft | 445 kts | 143° |
| 2026-04-29 14:29 | -2.92108 | 14.32534 | 29279 ft | 442 kts | 143° |
| 2026-04-29 14:29 | -2.94603 | 14.34259 | 28833 ft | 439 kts | 143° |
| 2026-04-29 14:30 | -2.97135 | 14.36010 | 28384 ft | 436 kts | 143° |
| 2026-04-29 14:30 | -2.99630 | 14.37736 | 27943 ft | 433 kts | 143° |
| 2026-04-29 14:30 | -3.02085 | 14.39435 | 27510 ft | 431 kts | 143° |
| 2026-04-29 14:30 | -3.04530 | 14.41127 | 27075 ft | 429 kts | 143° |
| 2026-04-29 14:31 | -3.06997 | 14.42834 | 26634 ft | 425 kts | 142° |
| 2026-04-29 14:31 | -3.09409 | 14.44503 | 26200 ft | 422 kts | 142° |
| 2026-04-29 14:31 | -3.11828 | 14.46177 | 25761 ft | 419 kts | 142° |
| 2026-04-29 14:31 | -3.14237 | 14.47844 | 25324 ft | 417 kts | 142° |
| 2026-04-29 14:32 | -3.16627 | 14.49499 | 24887 ft | 414 kts | 142° |
| 2026-04-29 14:32 | -3.18981 | 14.51129 | 24455 ft | 411 kts | 142° |
| 2026-04-29 14:32 | -3.21331 | 14.52755 | 24021 ft | 409 kts | 142° |
| 2026-04-29 14:32 | -3.23678 | 14.54380 | 23586 ft | 407 kts | 142° |
| 2026-04-29 14:33 | -3.25995 | 14.55984 | 23159 ft | 404 kts | 142° |
| 2026-04-29 14:33 | -3.28319 | 14.57592 | 22729 ft | 401 kts | 142° |
| 2026-04-29 14:33 | -3.30589 | 14.59164 | 22305 ft | 397 kts | 142° |
| 2026-04-29 14:33 | -3.32856 | 14.60733 | 21895 ft | 395 kts | 142° |
| 2026-04-29 14:34 | -3.35130 | 14.62308 | 21481 ft | 392 kts | 142° |
| 2026-04-29 14:34 | -3.37386 | 14.63870 | 21067 ft | 390 kts | 142° |
| 2026-04-29 14:34 | -3.39591 | 14.65398 | 20662 ft | 388 kts | 142° |
| 2026-04-29 14:34 | -3.41827 | 14.66946 | 20247 ft | 386 kts | 142° |
| 2026-04-29 14:35 | -3.44032 | 14.68473 | 19834 ft | 383 kts | 142° |
| 2026-04-29 14:35 | -3.46223 | 14.69991 | 19421 ft | 380 kts | 143° |
| 2026-04-29 14:35 | -3.48378 | 14.71484 | 19013 ft | 379 kts | 143° |
| 2026-04-29 14:35 | -3.50563 | 14.72997 | 18597 ft | 376 kts | 143° |
| 2026-04-29 14:36 | -3.52721 | 14.74493 | 18183 ft | 375 kts | 143° |
| 2026-04-29 14:36 | -3.54858 | 14.75973 | 17770 ft | 373 kts | 143° |
| 2026-04-29 14:36 | -3.56982 | 14.77444 | 17358 ft | 371 kts | 143° |
| 2026-04-29 14:36 | -3.59095 | 14.78907 | 16949 ft | 369 kts | 143° |
| 2026-04-29 14:37 | -3.61207 | 14.80370 | 16537 ft | 366 kts | 143° |
| 2026-04-29 14:37 | -3.63305 | 14.81823 | 16123 ft | 363 kts | 143° |
| 2026-04-29 14:37 | -3.65381 | 14.83262 | 15708 ft | 360 kts | 143° |
| 2026-04-29 14:37 | -3.67440 | 14.84688 | 15295 ft | 357 kts | 143° |
| 2026-04-29 14:38 | -3.69467 | 14.86093 | 14884 ft | 354 kts | 143° |
| 2026-04-29 14:38 | -3.71493 | 14.87497 | 14467 ft | 352 kts | 143° |
| 2026-04-29 14:38 | -3.73508 | 14.88893 | 14048 ft | 349 kts | 143° |
| 2026-04-29 14:38 | -3.75507 | 14.90279 | 13632 ft | 346 kts | 143° |
| 2026-04-29 14:39 | -3.77486 | 14.91651 | 13216 ft | 343 kts | 143° |
| 2026-04-29 14:39 | -3.79425 | 14.92994 | 12800 ft | 341 kts | 143° |
| 2026-04-29 14:39 | -3.81383 | 14.94352 | 12380 ft | 339 kts | 143° |
| 2026-04-29 14:39 | -3.83318 | 14.95693 | 11964 ft | 336 kts | 143° |
| 2026-04-29 14:40 | -3.85229 | 14.97018 | 11544 ft | 334 kts | 143° |
| 2026-04-29 14:40 | -3.87134 | 14.98338 | 11125 ft | 332 kts | 143° |
| 2026-04-29 14:40 | -3.89029 | 14.99651 | 10759 ft | 328 kts | 143° |
| 2026-04-29 14:40 | -3.90904 | 15.00952 | 10404 ft | 324 kts | 143° |
| 2026-04-29 14:41 | -3.92734 | 15.02220 | 10076 ft | 309 kts | 143° |
| 2026-04-29 14:41 | -3.94440 | 15.03403 | 9940 ft | 288 kts | 143° |
| 2026-04-29 14:41 | -3.96047 | 15.04518 | 9704 ft | 273 kts | 143° |
| 2026-04-29 14:41 | -3.97585 | 15.05586 | 9402 ft | 263 kts | 143° |
| 2026-04-29 14:42 | -3.99077 | 15.06622 | 9089 ft | 259 kts | 143° |
| 2026-04-29 14:42 | -4.00566 | 15.07656 | 8742 ft | 260 kts | 143° |
| 2026-04-29 14:42 | -4.02051 | 15.08687 | 8413 ft | 258 kts | 143° |
| 2026-04-29 14:42 | -4.03511 | 15.09699 | 8095 ft | 257 kts | 143° |
| 2026-04-29 14:43 | -4.04998 | 15.10731 | 7766 ft | 256 kts | 143° |
| 2026-04-29 14:43 | -4.06463 | 15.11746 | 7442 ft | 255 kts | 143° |
| 2026-04-29 14:43 | -4.07918 | 15.12755 | 7121 ft | 254 kts | 143° |
| 2026-04-29 14:43 | -4.09375 | 15.13766 | 6838 ft | 251 kts | 143° |
| 2026-04-29 14:44 | -4.10805 | 15.14759 | 6603 ft | 246 kts | 143° |
| 2026-04-29 14:44 | -4.12197 | 15.15724 | 6377 ft | 240 kts | 143° |
| 2026-04-29 14:44 | -4.13567 | 15.16644 | 6160 ft | 232 kts | 145° |
| 2026-04-29 14:44 | -4.14895 | 15.17509 | 6060 ft | 221 kts | 145° |
| 2026-04-29 14:45 | -4.16183 | 15.18351 | 6039 ft | 222 kts | 145° |
| 2026-04-29 14:45 | -4.17491 | 15.19208 | 6030 ft | 222 kts | 145° |
| 2026-04-29 14:45 | -4.18795 | 15.20067 | 6026 ft | 223 kts | 145° |
| 2026-04-29 14:45 | -4.20101 | 15.20926 | 6025 ft | 223 kts | 145° |
| 2026-04-29 14:46 | -4.21400 | 15.21779 | 6025 ft | 223 kts | 145° |
| 2026-04-29 14:46 | -4.22707 | 15.22633 | 6022 ft | 224 kts | 145° |
| 2026-04-29 14:46 | -4.24013 | 15.23486 | 6021 ft | 225 kts | 145° |
| 2026-04-29 14:46 | -4.25342 | 15.24354 | 6020 ft | 224 kts | 145° |
| 2026-04-29 14:47 | -4.26498 | 15.25348 | 6019 ft | 221 kts | 118° |
| 2026-04-29 14:47 | -4.26928 | 15.26826 | 5920 ft | 225 kts | 94° |
| 2026-04-29 14:47 | -4.26683 | 15.28352 | 5696 ft | 221 kts | 65° |
| 2026-04-29 14:47 | -4.25979 | 15.29703 | 5506 ft | 220 kts | 59° |
| 2026-04-29 14:48 | -4.25225 | 15.31042 | 5276 ft | 220 kts | 76° |
| 2026-04-29 14:48 | -4.25195 | 15.32561 | 4962 ft | 223 kts | 98° |
| 2026-04-29 14:48 | -4.25199 | 15.34107 | 4662 ft | 220 kts | 90° |
| 2026-04-29 14:48 | -4.25305 | 15.35612 | 4553 ft | 215 kts | 92° |
| 2026-04-29 14:49 | -4.25357 | 15.37124 | 4526 ft | 219 kts | 91° |
| 2026-04-29 14:49 | -4.25391 | 15.38670 | 4517 ft | 218 kts | 90° |
| 2026-04-29 14:49 | -4.25420 | 15.40187 | 4514 ft | 218 kts | 90° |
| 2026-04-29 14:49 | -4.25447 | 15.41707 | 4346 ft | 225 kts | 90° |
| 2026-04-29 14:50 | -4.25476 | 15.43281 | 4014 ft | 225 kts | 90° |
| 2026-04-29 14:50 | -4.25504 | 15.44837 | 3694 ft | 223 kts | 90° |
| 2026-04-29 14:50 | -4.25531 | 15.46360 | 3550 ft | 212 kts | 90° |
| 2026-04-29 14:50 | -4.25557 | 15.47799 | 3515 ft | 206 kts | 90° |
| 2026-04-29 14:51 | -4.25605 | 15.49237 | 3508 ft | 207 kts | 91° |
| 2026-04-29 14:51 | -4.25658 | 15.50683 | 3508 ft | 207 kts | 91° |
| 2026-04-29 14:51 | -4.25711 | 15.52120 | 3510 ft | 207 kts | 91° |
| 2026-04-29 14:51 | -4.25765 | 15.53579 | 3512 ft | 207 kts | 91° |
| 2026-04-29 14:52 | -4.25817 | 15.55005 | 3512 ft | 207 kts | 91° |
| 2026-04-29 14:52 | -4.25869 | 15.56459 | 3514 ft | 207 kts | 91° |
| 2026-04-29 14:52 | -4.25927 | 15.57892 | 3514 ft | 206 kts | 91° |
| 2026-04-29 14:52 | -4.25990 | 15.59318 | 3516 ft | 206 kts | 94° |
| 2026-04-29 14:53 | -4.26568 | 15.60626 | 3519 ft | 209 kts | 136° |
| 2026-04-29 14:53 | -4.27858 | 15.61246 | 3521 ft | 211 kts | 176° |
| 2026-04-29 14:53 | -4.29262 | 15.60893 | 3522 ft | 211 kts | 217° |
| 2026-04-29 14:53 | -4.30158 | 15.59750 | 3518 ft | 210 kts | 253° |
| 2026-04-29 14:54 | -4.30516 | 15.58326 | 3522 ft | 208 kts | 262° |
| 2026-04-29 14:54 | -4.30661 | 15.56901 | 3406 ft | 209 kts | 252° |
| 2026-04-29 14:54 | -4.31368 | 15.55683 | 3286 ft | 195 kts | 238° |
| 2026-04-29 14:54 | -4.32087 | 15.54540 | 2965 ft | 188 kts | 239° |
| 2026-04-29 14:55 | -4.32773 | 15.53454 | 2718 ft | 180 kts | 239° |
| 2026-04-29 14:55 | -4.33426 | 15.52432 | 2511 ft | 169 kts | 238° |
| 2026-04-29 14:55 | -4.34044 | 15.51473 | 2333 ft | 158 kts | 239° |
| 2026-04-29 14:55 | -4.34648 | 15.50532 | 2123 ft | 160 kts | 239° |
| 2026-04-29 14:56 | -4.35245 | 15.49607 | 1891 ft | 156 kts | 240° |
| 2026-04-29 14:56 | -4.35831 | 15.48707 | 1692 ft | 154 kts | 240° |
| 2026-04-29 14:56 | -4.36414 | 15.47795 | 1530 ft | 153 kts | 239° |
| 2026-04-29 14:56 | -4.36995 | 15.46913 | 1368 ft | 152 kts | 240° |
| 2026-04-29 14:57 | -4.37568 | 15.46005 | 1143 ft | 155 kts | 240° |
| 2026-04-29 14:57 | -4.38157 | 15.45085 | 1035 ft | 154 kts | 240° |
| 2026-04-29 14:57 | -4.38641 | 15.44317 | 1032 ft | 99 kts | 234° |
| 2026-04-29 14:57 | -4.38924 | 15.43898 | 1032 ft | 58 kts | 238° |
| 2026-04-29 14:58 | -4.39132 | 15.43569 | 1032 ft | 54 kts | 238° |
| 2026-04-29 14:58 | -4.39330 | 15.43263 | 1033 ft | 49 kts | 238° |
| 2026-04-29 14:58 | -4.39489 | 15.43020 | 1033 ft | 35 kts | 234° |
| 2026-04-29 14:58 | -4.39579 | 15.42890 | 1033 ft | 15 kts | 238° |
| 2026-04-29 14:59 | -4.39649 | 15.42839 | 1033 ft | 10 kts | 205° |
| 2026-04-29 14:59 | -4.39708 | 15.42797 | 1033 ft | 10 kts | 239° |
| 2026-04-29 14:59 | -4.39691 | 15.42737 | 1033 ft | 9 kts | 335° |
| 2026-04-29 14:59 | -4.39645 | 15.42755 | 1033 ft | 7 kts | 64° |
| 2026-04-29 15:00 | -4.39622 | 15.42806 | 1033 ft | 9 kts | 64° |
| 2026-04-29 15:00 | -4.39585 | 15.42873 | 1033 ft | 13 kts | 57° |
| 2026-04-29 15:00 | -4.39520 | 15.42973 | 1033 ft | 19 kts | 58° |
| 2026-04-29 15:00 | -4.39436 | 15.43106 | 1033 ft | 24 kts | 58° |
| 2026-04-29 15:01 | -4.39334 | 15.43262 | 1033 ft | 28 kts | 57° |
| 2026-04-29 15:01 | -4.39226 | 15.43437 | 1033 ft | 29 kts | 57° |
| 2026-04-29 15:01 | -4.39114 | 15.43604 | 1032 ft | 28 kts | 57° |
| 2026-04-29 15:01 | -4.39007 | 15.43762 | 1032 ft | 26 kts | 59° |
| 2026-04-29 15:02 | -4.38911 | 15.43915 | 1032 ft | 25 kts | 58° |
| 2026-04-29 15:02 | -4.38850 | 15.44010 | 1032 ft | 10 kts | 56° |
| 2026-04-29 15:02 | -4.38834 | 15.44071 | 1032 ft | 8 kts | 115° |
| 2026-04-29 15:02 | -4.38874 | 15.44112 | 1032 ft | 8 kts | 144° |
| 2026-04-29 15:03 | -4.38926 | 15.44146 | 1032 ft | 9 kts | 149° |
| 2026-04-29 15:03 | -4.38957 | 15.44193 | 1032 ft | 8 kts | 80° |
| 2026-04-29 15:03 | -4.38922 | 15.44247 | 1032 ft | 9 kts | 58° |
| 2026-04-29 15:03 | -4.38887 | 15.44302 | 1032 ft | 8 kts | 57° |
| 2026-04-29 15:04 | -4.38891 | 15.44348 | 1032 ft | 6 kts | 131° |
| 2026-04-29 15:04 | -4.38923 | 15.44370 | 1032 ft | 3 kts | 149° |
| 2026-04-29 15:04 | -4.38926 | 15.44373 | 1032 ft | 0 kts | 149° |
| 2026-04-29 15:04 | -4.38927 | 15.44373 | 1032 ft | 0 kts | 149° |